sensor_id;sensor_type;location;lat;lon;timestamp;P1;durP1;ratioP1;P2;durP2;ratioP2
16484;SDS011;8353;47.856;12.344;2023-09-18T00:01:17;2.50;;;2.30;;
16484;SDS011;8353;47.856;12.344;2023-09-18T00:03:48;2.60;;;2.40;;
16484;SDS011;8353;47.856;12.344;2023-09-18T00:06:18;3.25;;;2.50;;
16484;SDS011;8353;47.856;12.344;2023-09-18T00:08:52;2.70;;;2.40;;
16484;SDS011;8353;47.856;12.344;2023-09-18T00:11:24;2.72;;;2.53;;
16484;SDS011;8353;47.856;12.344;2023-09-18T00:13:54;2.92;;;2.42;;
16484;SDS011;8353;47.856;12.344;2023-09-18T00:16:25;2.92;;;2.63;;
16484;SDS011;8353;47.856;12.344;2023-09-18T00:18:55;2.75;;;2.40;;
16484;SDS011;8353;47.856;12.344;2023-09-18T00:21:26;2.97;;;2.50;;
16484;SDS011;8353;47.856;12.344;2023-09-18T00:23:58;5.53;;;2.40;;
16484;SDS011;8353;47.856;12.344;2023-09-18T00:26:30;2.58;;;2.38;;
16484;SDS011;8353;47.856;12.344;2023-09-18T00:29:00;3.53;;;2.50;;
16484;SDS011;8353;47.856;12.344;2023-09-18T00:31:31;3.13;;;2.45;;
16484;SDS011;8353;47.856;12.344;2023-09-18T00:34:01;2.83;;;2.10;;
16484;SDS011;8353;47.856;12.344;2023-09-18T00:36:31;3.25;;;2.50;;
16484;SDS011;8353;47.856;12.344;2023-09-18T00:39:01;3.00;;;2.30;;
16484;SDS011;8353;47.856;12.344;2023-09-18T00:41:34;3.25;;;2.45;;
16484;SDS011;8353;47.856;12.344;2023-09-18T00:44:05;3.25;;;2.15;;
16484;SDS011;8353;47.856;12.344;2023-09-18T00:46:36;3.65;;;2.17;;
16484;SDS011;8353;47.856;12.344;2023-09-18T00:49:06;3.30;;;2.30;;
16484;SDS011;8353;47.856;12.344;2023-09-18T00:51:36;3.22;;;2.20;;
16484;SDS011;8353;47.856;12.344;2023-09-18T00:54:08;3.65;;;2.30;;
16484;SDS011;8353;47.856;12.344;2023-09-18T00:56:40;2.63;;;1.90;;
16484;SDS011;8353;47.856;12.344;2023-09-18T00:59:10;2.65;;;2.20;;
16484;SDS011;8353;47.856;12.344;2023-09-18T01:01:42;3.47;;;2.17;;
16484;SDS011;8353;47.856;12.344;2023-09-18T01:04:13;3.05;;;2.00;;
16484;SDS011;8353;47.856;12.344;2023-09-18T01:06:43;4.47;;;2.13;;
16484;SDS011;8353;47.856;12.344;2023-09-18T01:09:13;2.33;;;2.13;;
16484;SDS011;8353;47.856;12.344;2023-09-18T01:11:49;2.72;;;2.38;;
16484;SDS011;8353;47.856;12.344;2023-09-18T01:14:28;4.35;;;2.13;;
16484;SDS011;8353;47.856;12.344;2023-09-18T01:17:02;3.22;;;2.38;;
16484;SDS011;8353;47.856;12.344;2023-09-18T01:19:38;3.58;;;2.75;;
16484;SDS011;8353;47.856;12.344;2023-09-18T01:22:12;3.75;;;2.28;;
16484;SDS011;8353;47.856;12.344;2023-09-18T01:24:45;4.07;;;2.60;;
16484;SDS011;8353;47.856;12.344;2023-09-18T01:27:17;2.88;;;2.10;;
16484;SDS011;8353;47.856;12.344;2023-09-18T01:29:47;2.30;;;2.10;;
16484;SDS011;8353;47.856;12.344;2023-09-18T01:32:18;2.97;;;2.03;;
16484;SDS011;8353;47.856;12.344;2023-09-18T01:34:50;2.38;;;2.17;;
16484;SDS011;8353;47.856;12.344;2023-09-18T01:37:24;3.10;;;2.20;;
16484;SDS011;8353;47.856;12.344;2023-09-18T01:39:58;2.53;;;2.00;;
16484;SDS011;8353;47.856;12.344;2023-09-18T01:42:28;3.20;;;2.13;;
16484;SDS011;8353;47.856;12.344;2023-09-18T01:44:59;3.30;;;2.45;;
16484;SDS011;8353;47.856;12.344;2023-09-18T01:47:30;2.67;;;2.15;;
16484;SDS011;8353;47.856;12.344;2023-09-18T01:50:02;3.30;;;2.17;;
16484;SDS011;8353;47.856;12.344;2023-09-18T01:52:34;4.32;;;2.30;;
16484;SDS011;8353;47.856;12.344;2023-09-18T01:55:28;2.38;;;2.17;;
16484;SDS011;8353;47.856;12.344;2023-09-18T01:57:59;2.35;;;2.08;;
16484;SDS011;8353;47.856;12.344;2023-09-18T02:00:29;3.03;;;2.33;;
16484;SDS011;8353;47.856;12.344;2023-09-18T02:03:00;2.75;;;2.15;;
16484;SDS011;8353;47.856;12.344;2023-09-18T02:05:30;2.85;;;1.92;;
16484;SDS011;8353;47.856;12.344;2023-09-18T02:08:01;2.78;;;2.20;;
16484;SDS011;8353;47.856;12.344;2023-09-18T02:10:33;3.22;;;2.20;;
16484;SDS011;8353;47.856;12.344;2023-09-18T02:13:04;3.63;;;2.30;;
16484;SDS011;8353;47.856;12.344;2023-09-18T02:15:36;5.20;;;2.22;;
16484;SDS011;8353;47.856;12.344;2023-09-18T02:18:07;3.67;;;2.03;;
16484;SDS011;8353;47.856;12.344;2023-09-18T02:20:39;2.40;;;2.20;;
16484;SDS011;8353;47.856;12.344;2023-09-18T02:23:10;3.25;;;2.10;;
16484;SDS011;8353;47.856;12.344;2023-09-18T02:25:42;3.35;;;1.80;;
16484;SDS011;8353;47.856;12.344;2023-09-18T02:28:12;2.88;;;2.20;;
16484;SDS011;8353;47.856;12.344;2023-09-18T02:30:43;2.67;;;2.10;;
16484;SDS011;8353;47.856;12.344;2023-09-18T02:33:14;2.78;;;1.92;;
16484;SDS011;8353;47.856;12.344;2023-09-18T02:35:45;3.35;;;2.08;;
16484;SDS011;8353;47.856;12.344;2023-09-18T02:38:15;2.80;;;2.40;;
16484;SDS011;8353;47.856;12.344;2023-09-18T02:40:47;4.15;;;2.30;;
16484;SDS011;8353;47.856;12.344;2023-09-18T02:43:17;3.70;;;1.90;;
16484;SDS011;8353;47.856;12.344;2023-09-18T02:45:47;2.58;;;2.30;;
16484;SDS011;8353;47.856;12.344;2023-09-18T02:48:17;5.68;;;2.45;;
16484;SDS011;8353;47.856;12.344;2023-09-18T02:50:48;3.08;;;2.20;;
16484;SDS011;8353;47.856;12.344;2023-09-18T02:53:19;4.80;;;2.38;;
16484;SDS011;8353;47.856;12.344;2023-09-18T02:55:52;2.53;;;2.00;;
16484;SDS011;8353;47.856;12.344;2023-09-18T02:58:23;4.90;;;2.15;;
16484;SDS011;8353;47.856;12.344;2023-09-18T03:00:55;3.08;;;2.00;;
16484;SDS011;8353;47.856;12.344;2023-09-18T03:03:26;3.90;;;2.42;;
16484;SDS011;8353;47.856;12.344;2023-09-18T03:06:00;3.17;;;1.85;;
16484;SDS011;8353;47.856;12.344;2023-09-18T03:08:30;2.97;;;2.20;;
16484;SDS011;8353;47.856;12.344;2023-09-18T03:11:03;3.95;;;2.15;;
16484;SDS011;8353;47.856;12.344;2023-09-18T03:13:42;3.13;;;2.00;;
16484;SDS011;8353;47.856;12.344;2023-09-18T03:16:14;4.20;;;2.35;;
16484;SDS011;8353;47.856;12.344;2023-09-18T03:18:45;3.42;;;1.83;;
16484;SDS011;8353;47.856;12.344;2023-09-18T03:21:15;3.17;;;1.75;;
16484;SDS011;8353;47.856;12.344;2023-09-18T03:23:45;3.92;;;2.15;;
16484;SDS011;8353;47.856;12.344;2023-09-18T03:26:17;2.90;;;2.08;;
16484;SDS011;8353;47.856;12.344;2023-09-18T03:28:47;4.15;;;2.60;;
16484;SDS011;8353;47.856;12.344;2023-09-18T03:31:18;2.70;;;2.08;;
16484;SDS011;8353;47.856;12.344;2023-09-18T03:33:48;3.22;;;2.25;;
16484;SDS011;8353;47.856;12.344;2023-09-18T03:36:20;3.90;;;2.40;;
16484;SDS011;8353;47.856;12.344;2023-09-18T03:38:51;3.15;;;2.20;;
16484;SDS011;8353;47.856;12.344;2023-09-18T03:41:23;2.42;;;2.05;;
16484;SDS011;8353;47.856;12.344;2023-09-18T03:43:53;4.88;;;2.47;;
16484;SDS011;8353;47.856;12.344;2023-09-18T03:46:23;4.40;;;2.70;;
16484;SDS011;8353;47.856;12.344;2023-09-18T03:48:53;2.95;;;2.17;;
16484;SDS011;8353;47.856;12.344;2023-09-18T03:51:26;3.55;;;2.40;;
16484;SDS011;8353;47.856;12.344;2023-09-18T03:53:56;3.15;;;2.20;;
16484;SDS011;8353;47.856;12.344;2023-09-18T03:56:28;3.00;;;2.13;;
16484;SDS011;8353;47.856;12.344;2023-09-18T03:58:58;2.38;;;1.95;;
16484;SDS011;8353;47.856;12.344;2023-09-18T04:01:30;3.90;;;1.80;;
16484;SDS011;8353;47.856;12.344;2023-09-18T04:04:00;3.88;;;2.20;;
16484;SDS011;8353;47.856;12.344;2023-09-18T04:06:35;4.35;;;2.35;;
16484;SDS011;8353;47.856;12.344;2023-09-18T04:09:06;3.55;;;2.10;;
16484;SDS011;8353;47.856;12.344;2023-09-18T04:11:38;4.30;;;2.30;;
16484;SDS011;8353;47.856;12.344;2023-09-18T04:14:08;5.22;;;2.35;;
16484;SDS011;8353;47.856;12.344;2023-09-18T04:16:38;3.90;;;2.42;;
16484;SDS011;8353;47.856;12.344;2023-09-18T04:19:10;4.45;;;2.33;;
16484;SDS011;8353;47.856;12.344;2023-09-18T04:21:40;4.20;;;2.38;;
16484;SDS011;8353;47.856;12.344;2023-09-18T04:24:11;3.72;;;2.40;;
16484;SDS011;8353;47.856;12.344;2023-09-18T04:26:43;4.85;;;2.50;;
16484;SDS011;8353;47.856;12.344;2023-09-18T04:29:14;5.25;;;2.63;;
16484;SDS011;8353;47.856;12.344;2023-09-18T04:31:44;5.70;;;2.28;;
16484;SDS011;8353;47.856;12.344;2023-09-18T04:34:14;4.82;;;2.33;;
16484;SDS011;8353;47.856;12.344;2023-09-18T04:36:44;4.45;;;2.20;;
16484;SDS011;8353;47.856;12.344;2023-09-18T04:39:15;3.58;;;2.03;;
16484;SDS011;8353;47.856;12.344;2023-09-18T04:41:46;4.32;;;2.42;;
16484;SDS011;8353;47.856;12.344;2023-09-18T04:44:16;4.38;;;2.55;;
16484;SDS011;8353;47.856;12.344;2023-09-18T04:46:46;4.15;;;2.47;;
16484;SDS011;8353;47.856;12.344;2023-09-18T04:49:17;6.25;;;2.60;;
16484;SDS011;8353;47.856;12.344;2023-09-18T04:51:48;7.60;;;3.38;;
16484;SDS011;8353;47.856;12.344;2023-09-18T04:54:18;4.40;;;2.20;;
16484;SDS011;8353;47.856;12.344;2023-09-18T04:56:50;4.13;;;2.72;;
16484;SDS011;8353;47.856;12.344;2023-09-18T04:59:20;4.28;;;2.85;;
16484;SDS011;8353;47.856;12.344;2023-09-18T05:01:51;5.68;;;2.65;;
16484;SDS011;8353;47.856;12.344;2023-09-18T05:04:22;4.68;;;2.70;;
16484;SDS011;8353;47.856;12.344;2023-09-18T05:06:52;5.03;;;3.05;;
16484;SDS011;8353;47.856;12.344;2023-09-18T05:09:22;5.07;;;2.25;;
16484;SDS011;8353;47.856;12.344;2023-09-18T05:11:54;4.07;;;2.47;;
16484;SDS011;8353;47.856;12.344;2023-09-18T05:14:25;6.68;;;2.63;;
16484;SDS011;8353;47.856;12.344;2023-09-18T05:16:55;4.15;;;2.47;;
16484;SDS011;8353;47.856;12.344;2023-09-18T05:19:25;9.50;;;3.08;;
16484;SDS011;8353;47.856;12.344;2023-09-18T05:21:57;6.78;;;3.03;;
16484;SDS011;8353;47.856;12.344;2023-09-18T05:24:27;6.50;;;2.45;;
16484;SDS011;8353;47.856;12.344;2023-09-18T05:26:59;4.97;;;2.80;;
16484;SDS011;8353;47.856;12.344;2023-09-18T05:29:30;7.45;;;3.00;;
16484;SDS011;8353;47.856;12.344;2023-09-18T05:32:01;5.65;;;3.13;;
16484;SDS011;8353;47.856;12.344;2023-09-18T05:34:32;8.90;;;3.03;;
16484;SDS011;8353;47.856;12.344;2023-09-18T05:37:02;6.68;;;2.40;;
16484;SDS011;8353;47.856;12.344;2023-09-18T05:39:33;6.57;;;3.30;;
16484;SDS011;8353;47.856;12.344;2023-09-18T05:42:05;5.68;;;2.42;;
16484;SDS011;8353;47.856;12.344;2023-09-18T05:44:36;6.60;;;2.42;;
16484;SDS011;8353;47.856;12.344;2023-09-18T05:47:08;5.07;;;2.75;;
16484;SDS011;8353;47.856;12.344;2023-09-18T05:49:38;13.18;;;3.63;;
16484;SDS011;8353;47.856;12.344;2023-09-18T05:52:09;9.50;;;3.47;;
16484;SDS011;8353;47.856;12.344;2023-09-18T05:54:39;6.28;;;3.17;;
16484;SDS011;8353;47.856;12.344;2023-09-18T05:57:11;6.38;;;3.10;;
16484;SDS011;8353;47.856;12.344;2023-09-18T05:59:42;6.80;;;3.15;;
16484;SDS011;8353;47.856;12.344;2023-09-18T06:02:13;4.70;;;2.53;;
16484;SDS011;8353;47.856;12.344;2023-09-18T06:04:45;8.93;;;2.90;;
16484;SDS011;8353;47.856;12.344;2023-09-18T06:07:15;9.65;;;2.90;;
16484;SDS011;8353;47.856;12.344;2023-09-18T06:09:46;7.85;;;3.33;;
16484;SDS011;8353;47.856;12.344;2023-09-18T06:12:17;5.28;;;2.70;;
16484;SDS011;8353;47.856;12.344;2023-09-18T06:14:48;4.22;;;2.53;;
16484;SDS011;8353;47.856;12.344;2023-09-18T06:17:19;3.70;;;2.25;;
16484;SDS011;8353;47.856;12.344;2023-09-18T06:19:49;8.25;;;2.92;;
16484;SDS011;8353;47.856;12.344;2023-09-18T06:22:21;5.63;;;2.80;;
16484;SDS011;8353;47.856;12.344;2023-09-18T06:24:52;5.55;;;2.28;;
16484;SDS011;8353;47.856;12.344;2023-09-18T06:27:23;6.03;;;2.85;;
16484;SDS011;8353;47.856;12.344;2023-09-18T06:29:54;4.68;;;2.38;;
16484;SDS011;8353;47.856;12.344;2023-09-18T06:32:24;6.13;;;3.15;;
16484;SDS011;8353;47.856;12.344;2023-09-18T06:34:54;7.88;;;2.92;;
16484;SDS011;8353;47.856;12.344;2023-09-18T06:37:26;7.50;;;2.65;;
16484;SDS011;8353;47.856;12.344;2023-09-18T06:39:56;7.35;;;2.88;;
16484;SDS011;8353;47.856;12.344;2023-09-18T06:42:29;7.65;;;2.90;;
16484;SDS011;8353;47.856;12.344;2023-09-18T06:44:59;7.47;;;2.90;;
16484;SDS011;8353;47.856;12.344;2023-09-18T06:47:31;4.32;;;2.45;;
16484;SDS011;8353;47.856;12.344;2023-09-18T06:50:02;5.13;;;2.60;;
16484;SDS011;8353;47.856;12.344;2023-09-18T06:52:34;8.07;;;3.08;;
16484;SDS011;8353;47.856;12.344;2023-09-18T06:55:05;8.55;;;2.95;;
16484;SDS011;8353;47.856;12.344;2023-09-18T06:57:37;6.88;;;2.60;;
16484;SDS011;8353;47.856;12.344;2023-09-18T07:00:08;5.88;;;2.90;;
16484;SDS011;8353;47.856;12.344;2023-09-18T07:02:42;8.32;;;3.08;;
16484;SDS011;8353;47.856;12.344;2023-09-18T07:05:12;8.13;;;3.05;;
16484;SDS011;8353;47.856;12.344;2023-09-18T07:07:43;9.10;;;2.63;;
16484;SDS011;8353;47.856;12.344;2023-09-18T07:10:13;6.53;;;2.45;;
16484;SDS011;8353;47.856;12.344;2023-09-18T07:12:45;7.13;;;3.80;;
16484;SDS011;8353;47.856;12.344;2023-09-18T07:15:16;11.18;;;4.68;;
16484;SDS011;8353;47.856;12.344;2023-09-18T07:17:46;11.75;;;7.53;;
16484;SDS011;8353;47.856;12.344;2023-09-18T07:20:17;10.23;;;8.10;;
16484;SDS011;8353;47.856;12.344;2023-09-18T07:22:48;12.55;;;8.80;;
16484;SDS011;8353;47.856;12.344;2023-09-18T07:25:18;12.38;;;9.20;;
16484;SDS011;8353;47.856;12.344;2023-09-18T07:27:50;10.40;;;8.00;;
16484;SDS011;8353;47.856;12.344;2023-09-18T07:30:20;8.50;;;4.20;;
16484;SDS011;8353;47.856;12.344;2023-09-18T07:32:51;10.73;;;5.22;;
16484;SDS011;8353;47.856;12.344;2023-09-18T07:35:21;7.10;;;4.88;;
16484;SDS011;8353;47.856;12.344;2023-09-18T07:37:52;8.18;;;5.63;;
16484;SDS011;8353;47.856;12.344;2023-09-18T07:40:23;5.40;;;3.40;;
16484;SDS011;8353;47.856;12.344;2023-09-18T07:43:12;5.68;;;4.10;;
16484;SDS011;8353;47.856;12.344;2023-09-18T07:45:42;4.45;;;3.30;;
16484;SDS011;8353;47.856;12.344;2023-09-18T07:48:13;7.68;;;3.15;;
16484;SDS011;8353;47.856;12.344;2023-09-18T07:50:45;5.28;;;3.40;;
16484;SDS011;8353;47.856;12.344;2023-09-18T07:53:18;5.30;;;3.10;;
16484;SDS011;8353;47.856;12.344;2023-09-18T07:55:55;3.83;;;3.03;;
16484;SDS011;8353;47.856;12.344;2023-09-18T07:58:28;4.38;;;3.00;;
16484;SDS011;8353;47.856;12.344;2023-09-18T08:00:59;4.22;;;3.20;;
16484;SDS011;8353;47.856;12.344;2023-09-18T08:03:31;4.95;;;3.08;;
16484;SDS011;8353;47.856;12.344;2023-09-18T08:06:02;5.93;;;3.65;;
16484;SDS011;8353;47.856;12.344;2023-09-18T08:08:33;5.38;;;3.25;;
16484;SDS011;8353;47.856;12.344;2023-09-18T08:11:08;7.20;;;3.80;;
16484;SDS011;8353;47.856;12.344;2023-09-18T08:13:40;4.18;;;2.90;;
16484;SDS011;8353;47.856;12.344;2023-09-18T08:16:10;5.45;;;3.40;;
16484;SDS011;8353;47.856;12.344;2023-09-18T08:18:43;4.32;;;2.78;;
16484;SDS011;8353;47.856;12.344;2023-09-18T08:21:13;7.43;;;3.00;;
16484;SDS011;8353;47.856;12.344;2023-09-18T08:23:43;7.20;;;3.42;;
16484;SDS011;8353;47.856;12.344;2023-09-18T08:26:15;5.13;;;3.20;;
16484;SDS011;8353;47.856;12.344;2023-09-18T08:28:47;5.70;;;3.40;;
16484;SDS011;8353;47.856;12.344;2023-09-18T08:31:18;4.65;;;2.78;;
16484;SDS011;8353;47.856;12.344;2023-09-18T08:33:48;6.47;;;3.65;;
16484;SDS011;8353;47.856;12.344;2023-09-18T08:36:19;5.50;;;3.08;;
16484;SDS011;8353;47.856;12.344;2023-09-18T08:38:50;5.78;;;3.08;;
16484;SDS011;8353;47.856;12.344;2023-09-18T08:41:21;5.43;;;3.17;;
16484;SDS011;8353;47.856;12.344;2023-09-18T08:43:59;4.38;;;3.30;;
16484;SDS011;8353;47.856;12.344;2023-09-18T08:46:31;5.88;;;3.03;;
16484;SDS011;8353;47.856;12.344;2023-09-18T08:49:03;6.30;;;3.20;;
16484;SDS011;8353;47.856;12.344;2023-09-18T08:51:34;5.47;;;3.38;;
16484;SDS011;8353;47.856;12.344;2023-09-18T08:54:05;7.25;;;3.83;;
16484;SDS011;8353;47.856;12.344;2023-09-18T08:56:37;5.90;;;3.60;;
16484;SDS011;8353;47.856;12.344;2023-09-18T08:59:09;7.20;;;3.28;;
16484;SDS011;8353;47.856;12.344;2023-09-18T09:01:40;6.28;;;3.30;;
16484;SDS011;8353;47.856;12.344;2023-09-18T09:04:10;6.93;;;3.45;;
16484;SDS011;8353;47.856;12.344;2023-09-18T09:06:41;6.55;;;3.33;;
16484;SDS011;8353;47.856;12.344;2023-09-18T09:09:12;9.02;;;4.10;;
16484;SDS011;8353;47.856;12.344;2023-09-18T09:11:47;8.10;;;3.78;;
16484;SDS011;8353;47.856;12.344;2023-09-18T09:14:20;7.90;;;3.63;;
16484;SDS011;8353;47.856;12.344;2023-09-18T09:16:56;9.35;;;3.42;;
16484;SDS011;8353;47.856;12.344;2023-09-18T09:19:28;5.85;;;3.33;;
16484;SDS011;8353;47.856;12.344;2023-09-18T09:21:59;11.77;;;4.28;;
16484;SDS011;8353;47.856;12.344;2023-09-18T09:24:37;8.10;;;3.92;;
16484;SDS011;8353;47.856;12.344;2023-09-18T09:27:09;9.93;;;3.67;;
16484;SDS011;8353;47.856;12.344;2023-09-18T09:29:41;6.50;;;3.95;;
16484;SDS011;8353;47.856;12.344;2023-09-18T09:32:12;6.75;;;3.20;;
16484;SDS011;8353;47.856;12.344;2023-09-18T09:34:44;8.18;;;3.55;;
16484;SDS011;8353;47.856;12.344;2023-09-18T09:37:16;6.93;;;3.03;;
16484;SDS011;8353;47.856;12.344;2023-09-18T09:39:47;9.60;;;3.17;;
16484;SDS011;8353;47.856;12.344;2023-09-18T09:42:20;9.73;;;3.47;;
16484;SDS011;8353;47.856;12.344;2023-09-18T09:45:02;9.77;;;3.97;;
16484;SDS011;8353;47.856;12.344;2023-09-18T09:47:34;8.55;;;3.35;;
16484;SDS011;8353;47.856;12.344;2023-09-18T09:50:08;16.10;;;4.47;;
16484;SDS011;8353;47.856;12.344;2023-09-18T09:52:42;9.05;;;3.17;;
16484;SDS011;8353;47.856;12.344;2023-09-18T09:55:21;12.00;;;3.90;;
16484;SDS011;8353;47.856;12.344;2023-09-18T09:57:55;9.65;;;3.80;;
16484;SDS011;8353;47.856;12.344;2023-09-18T10:00:32;9.13;;;3.40;;
16484;SDS011;8353;47.856;12.344;2023-09-18T10:03:11;6.95;;;3.63;;
16484;SDS011;8353;47.856;12.344;2023-09-18T10:05:43;7.00;;;3.22;;
16484;SDS011;8353;47.856;12.344;2023-09-18T10:08:16;9.23;;;3.35;;
16484;SDS011;8353;47.856;12.344;2023-09-18T10:10:49;8.48;;;3.53;;
16484;SDS011;8353;47.856;12.344;2023-09-18T10:13:22;5.60;;;2.65;;
16484;SDS011;8353;47.856;12.344;2023-09-18T10:15:58;11.25;;;3.88;;
16484;SDS011;8353;47.856;12.344;2023-09-18T10:18:36;6.40;;;3.47;;
16484;SDS011;8353;47.856;12.344;2023-09-18T10:21:14;8.82;;;3.20;;
16484;SDS011;8353;47.856;12.344;2023-09-18T10:23:53;8.93;;;2.88;;
16484;SDS011;8353;47.856;12.344;2023-09-18T10:26:29;9.05;;;3.65;;
16484;SDS011;8353;47.856;12.344;2023-09-18T10:29:07;9.40;;;2.80;;
16484;SDS011;8353;47.856;12.344;2023-09-18T10:31:44;6.55;;;3.25;;
16484;SDS011;8353;47.856;12.344;2023-09-18T10:34:16;8.35;;;2.67;;
16484;SDS011;8353;47.856;12.344;2023-09-18T10:36:48;4.68;;;2.90;;
16484;SDS011;8353;47.856;12.344;2023-09-18T10:39:20;8.38;;;2.83;;
16484;SDS011;8353;47.856;12.344;2023-09-18T10:41:53;5.15;;;3.25;;
16484;SDS011;8353;47.856;12.344;2023-09-18T10:44:25;7.00;;;3.15;;
16484;SDS011;8353;47.856;12.344;2023-09-18T10:46:58;6.93;;;2.85;;
16484;SDS011;8353;47.856;12.344;2023-09-18T10:49:30;6.28;;;2.92;;
16484;SDS011;8353;47.856;12.344;2023-09-18T10:52:01;5.55;;;2.67;;
16484;SDS011;8353;47.856;12.344;2023-09-18T10:54:32;7.13;;;3.10;;
16484;SDS011;8353;47.856;12.344;2023-09-18T10:57:07;6.47;;;2.90;;
16484;SDS011;8353;47.856;12.344;2023-09-18T10:59:42;6.18;;;3.42;;
16484;SDS011;8353;47.856;12.344;2023-09-18T11:02:15;7.20;;;3.00;;
16484;SDS011;8353;47.856;12.344;2023-09-18T11:04:47;9.27;;;3.25;;
16484;SDS011;8353;47.856;12.344;2023-09-18T11:07:21;7.35;;;3.25;;
16484;SDS011;8353;47.856;12.344;2023-09-18T11:09:53;6.30;;;3.22;;
16484;SDS011;8353;47.856;12.344;2023-09-18T11:12:41;5.78;;;2.67;;
16484;SDS011;8353;47.856;12.344;2023-09-18T11:15:24;8.30;;;2.67;;
16484;SDS011;8353;47.856;12.344;2023-09-18T11:18:01;9.02;;;3.15;;
16484;SDS011;8353;47.856;12.344;2023-09-18T11:20:32;6.53;;;3.03;;
16484;SDS011;8353;47.856;12.344;2023-09-18T11:23:09;6.05;;;3.10;;
16484;SDS011;8353;47.856;12.344;2023-09-18T11:25:47;7.05;;;3.38;;
16484;SDS011;8353;47.856;12.344;2023-09-18T11:28:22;7.40;;;3.28;;
16484;SDS011;8353;47.856;12.344;2023-09-18T11:30:54;8.45;;;3.72;;
16484;SDS011;8353;47.856;12.344;2023-09-18T11:33:31;14.65;;;3.80;;
16484;SDS011;8353;47.856;12.344;2023-09-18T11:36:06;8.30;;;3.20;;
16484;SDS011;8353;47.856;12.344;2023-09-18T11:38:53;4.60;;;2.90;;
16484;SDS011;8353;47.856;12.344;2023-09-18T11:41:25;9.40;;;3.30;;
16484;SDS011;8353;47.856;12.344;2023-09-18T11:47:12;7.07;;;2.67;;
16484;SDS011;8353;47.856;12.344;2023-09-18T11:49:48;6.63;;;2.92;;
16484;SDS011;8353;47.856;12.344;2023-09-18T11:52:22;7.32;;;3.47;;
16484;SDS011;8353;47.856;12.344;2023-09-18T11:54:55;8.43;;;2.80;;
16484;SDS011;8353;47.856;12.344;2023-09-18T11:57:26;6.80;;;3.05;;
16484;SDS011;8353;47.856;12.344;2023-09-18T11:59:58;6.32;;;3.03;;
16484;SDS011;8353;47.856;12.344;2023-09-18T12:02:40;7.57;;;2.60;;
16484;SDS011;8353;47.856;12.344;2023-09-18T12:05:15;10.10;;;3.05;;
16484;SDS011;8353;47.856;12.344;2023-09-18T12:07:47;8.77;;;3.22;;
16484;SDS011;8353;47.856;12.344;2023-09-18T12:10:20;7.35;;;3.17;;
16484;SDS011;8353;47.856;12.344;2023-09-18T12:12:50;8.15;;;2.55;;
16484;SDS011;8353;47.856;12.344;2023-09-18T12:15:21;6.97;;;2.95;;
16484;SDS011;8353;47.856;12.344;2023-09-18T12:17:54;11.63;;;4.15;;
16484;SDS011;8353;47.856;12.344;2023-09-18T12:20:26;6.05;;;3.00;;
16484;SDS011;8353;47.856;12.344;2023-09-18T12:22:57;6.40;;;3.05;;
16484;SDS011;8353;47.856;12.344;2023-09-18T12:25:27;6.10;;;3.08;;
16484;SDS011;8353;47.856;12.344;2023-09-18T12:27:58;10.00;;;3.17;;
16484;SDS011;8353;47.856;12.344;2023-09-18T12:30:29;7.63;;;2.85;;
16484;SDS011;8353;47.856;12.344;2023-09-18T12:33:02;8.27;;;3.25;;
16484;SDS011;8353;47.856;12.344;2023-09-18T12:35:35;6.80;;;2.80;;
16484;SDS011;8353;47.856;12.344;2023-09-18T12:38:13;6.50;;;2.78;;
16484;SDS011;8353;47.856;12.344;2023-09-18T12:40:44;5.35;;;2.45;;
16484;SDS011;8353;47.856;12.344;2023-09-18T12:43:15;6.22;;;2.38;;
16484;SDS011;8353;47.856;12.344;2023-09-18T12:45:46;7.97;;;2.15;;
16484;SDS011;8353;47.856;12.344;2023-09-18T12:48:18;6.93;;;1.80;;
16484;SDS011;8353;47.856;12.344;2023-09-18T12:50:52;6.30;;;2.10;;
16484;SDS011;8353;47.856;12.344;2023-09-18T12:53:22;3.17;;;1.70;;
16484;SDS011;8353;47.856;12.344;2023-09-18T12:55:53;6.47;;;1.77;;
16484;SDS011;8353;47.856;12.344;2023-09-18T12:58:24;4.00;;;1.35;;
16484;SDS011;8353;47.856;12.344;2023-09-18T13:00:55;2.67;;;0.90;;
16484;SDS011;8353;47.856;12.344;2023-09-18T13:03:26;2.72;;;1.23;;
16484;SDS011;8353;47.856;12.344;2023-09-18T13:06:07;3.72;;;1.27;;
16484;SDS011;8353;47.856;12.344;2023-09-18T13:08:38;4.15;;;1.27;;
16484;SDS011;8353;47.856;12.344;2023-09-18T13:11:09;2.50;;;1.00;;
16484;SDS011;8353;47.856;12.344;2023-09-18T13:13:40;3.22;;;1.08;;
16484;SDS011;8353;47.856;12.344;2023-09-18T13:16:11;3.45;;;1.10;;
16484;SDS011;8353;47.856;12.344;2023-09-18T13:18:41;2.72;;;0.90;;
16484;SDS011;8353;47.856;12.344;2023-09-18T13:21:13;1.83;;;1.05;;
16484;SDS011;8353;47.856;12.344;2023-09-18T13:23:43;2.80;;;1.10;;
16484;SDS011;8353;47.856;12.344;2023-09-18T13:26:14;3.80;;;1.08;;
16484;SDS011;8353;47.856;12.344;2023-09-18T13:28:44;4.05;;;0.98;;
16484;SDS011;8353;47.856;12.344;2023-09-18T13:31:15;3.22;;;1.10;;
16484;SDS011;8353;47.856;12.344;2023-09-18T13:33:49;1.55;;;1.00;;
16484;SDS011;8353;47.856;12.344;2023-09-18T13:36:22;2.35;;;0.95;;
16484;SDS011;8353;47.856;12.344;2023-09-18T13:38:53;2.33;;;0.75;;
16484;SDS011;8353;47.856;12.344;2023-09-18T13:41:23;1.00;;;0.60;;
16484;SDS011;8353;47.856;12.344;2023-09-18T13:43:54;2.85;;;0.68;;
16484;SDS011;8353;47.856;12.344;2023-09-18T13:46:24;1.20;;;0.70;;
16484;SDS011;8353;47.856;12.344;2023-09-18T13:48:54;1.38;;;0.73;;
16484;SDS011;8353;47.856;12.344;2023-09-18T13:51:26;1.50;;;0.82;;
16484;SDS011;8353;47.856;12.344;2023-09-18T13:53:55;1.95;;;0.75;;
16484;SDS011;8353;47.856;12.344;2023-09-18T13:56:26;2.10;;;0.68;;
16484;SDS011;8353;47.856;12.344;2023-09-18T13:58:57;1.63;;;1.05;;
16484;SDS011;8353;47.856;12.344;2023-09-18T14:01:28;1.02;;;0.50;;
16484;SDS011;8353;47.856;12.344;2023-09-18T14:03:59;1.88;;;0.63;;
16484;SDS011;8353;47.856;12.344;2023-09-18T14:06:31;1.20;;;0.85;;
16484;SDS011;8353;47.856;12.344;2023-09-18T14:09:02;2.45;;;0.85;;
16484;SDS011;8353;47.856;12.344;2023-09-18T14:11:34;1.35;;;0.57;;
16484;SDS011;8353;47.856;12.344;2023-09-18T14:14:07;1.13;;;0.70;;
16484;SDS011;8353;47.856;12.344;2023-09-18T14:16:37;2.47;;;0.95;;
16484;SDS011;8353;47.856;12.344;2023-09-18T14:19:09;1.77;;;0.55;;
16484;SDS011;8353;47.856;12.344;2023-09-18T14:21:41;2.15;;;0.82;;
16484;SDS011;8353;47.856;12.344;2023-09-18T14:24:12;2.38;;;0.57;;
16484;SDS011;8353;47.856;12.344;2023-09-18T14:26:42;1.88;;;0.60;;
16484;SDS011;8353;47.856;12.344;2023-09-18T14:29:15;3.08;;;1.00;;
16484;SDS011;8353;47.856;12.344;2023-09-18T14:31:45;2.42;;;0.95;;
16484;SDS011;8353;47.856;12.344;2023-09-18T14:34:16;2.63;;;2.30;;
16484;SDS011;8353;47.856;12.344;2023-09-18T14:36:48;0.98;;;0.68;;
16484;SDS011;8353;47.856;12.344;2023-09-18T14:39:18;1.40;;;0.68;;
16484;SDS011;8353;47.856;12.344;2023-09-18T14:41:49;1.48;;;0.55;;
16484;SDS011;8353;47.856;12.344;2023-09-18T14:44:19;0.68;;;0.57;;
16484;SDS011;8353;47.856;12.344;2023-09-18T14:46:50;1.20;;;0.90;;
16484;SDS011;8353;47.856;12.344;2023-09-18T14:49:21;1.60;;;0.80;;
16484;SDS011;8353;47.856;12.344;2023-09-18T14:51:52;0.60;;;0.50;;
16484;SDS011;8353;47.856;12.344;2023-09-18T14:54:23;0.65;;;0.50;;
16484;SDS011;8353;47.856;12.344;2023-09-18T14:56:53;1.13;;;0.70;;
16484;SDS011;8353;47.856;12.344;2023-09-18T14:59:23;1.60;;;0.60;;
16484;SDS011;8353;47.856;12.344;2023-09-18T15:01:53;1.02;;;0.68;;
16484;SDS011;8353;47.856;12.344;2023-09-18T15:04:24;1.10;;;0.85;;
16484;SDS011;8353;47.856;12.344;2023-09-18T15:06:55;2.03;;;0.80;;
16484;SDS011;8353;47.856;12.344;2023-09-18T15:09:26;0.80;;;0.52;;
16484;SDS011;8353;47.856;12.344;2023-09-18T15:11:57;1.40;;;0.65;;
16484;SDS011;8353;47.856;12.344;2023-09-18T15:14:27;2.47;;;0.95;;
16484;SDS011;8353;47.856;12.344;2023-09-18T15:16:57;1.13;;;0.80;;
16484;SDS011;8353;47.856;12.344;2023-09-18T15:19:27;1.95;;;0.95;;